createdAt,value
2023-05-10T04:31:32.966Z,53.8124
2023-05-10T04:32:35.035Z,53.7816
2023-05-10T04:33:37.042Z,53.6856
2023-05-10T04:34:39.169Z,53.6929
2023-05-10T04:35:41.194Z,53.5575
2023-05-10T04:36:43.201Z,53.4870
2023-05-10T04:37:45.884Z,53.4130
2023-05-10T04:38:47.283Z,53.3540
2023-05-10T04:39:51.897Z,53.3597
2023-05-10T04:40:51.379Z,53.2243
2023-05-10T04:41:53.439Z,53.1352
2023-05-10T04:42:55.466Z,53.0402
2023-05-10T04:43:57.510Z,52.9896
2023-05-10T04:44:59.596Z,52.9101
2023-05-10T04:46:01.614Z,53.1399
2023-05-10T04:47:03.643Z,52.7358
2023-05-10T04:48:05.777Z,52.6684
2023-05-10T04:49:07.723Z,52.5429
2023-05-10T04:50:09.751Z,52.4596
2023-05-10T04:51:11.800Z,52.5358
2023-05-10T04:52:13.861Z,53.3041
2023-05-10T04:53:16.056Z,53.9523
2023-05-10T04:54:17.941Z,54.0416
2023-05-10T04:55:19.988Z,53.8366
2023-05-10T04:56:22.025Z,54.5358
2023-05-10T04:57:24.066Z,54.6270
2023-05-10T04:58:26.104Z,54.2078
2023-05-10T04:59:28.211Z,53.4334
2023-05-10T05:00:30.189Z,52.8644
2023-05-10T05:01:32.319Z,52.5825
2023-05-10T05:02:34.371Z,52.4141
2023-05-10T05:03:36.342Z,52.2317
2023-05-10T05:04:38.365Z,52.2138
2023-05-10T05:05:40.410Z,52.2333
2023-05-10T05:06:42.467Z,52.1035
2023-05-10T05:07:44.492Z,51.8941
2023-05-10T05:08:46.528Z,51.8389
2023-05-10T05:09:48.584Z,51.8985
2023-05-10T05:10:50.698Z,51.8304
2023-05-10T05:11:52.681Z,51.8087
2023-05-10T05:12:54.731Z,51.7356
2023-05-10T05:13:56.740Z,51.6490
2023-05-10T05:14:58.800Z,51.6044
2023-05-10T05:16:00.857Z,51.5210
2023-05-10T05:17:02.881Z,51.4075
2023-05-10T05:18:04.994Z,51.3942
2023-05-10T05:19:06.971Z,51.2964
2023-05-10T05:20:09.024Z,51.2157
2023-05-10T05:21:11.072Z,51.1132
2023-05-10T05:22:13.114Z,51.0413
2023-05-10T05:23:15.142Z,51.0525
2023-05-10T05:24:17.194Z,50.9318
2023-05-10T05:25:19.244Z,50.8473
2023-05-10T05:26:21.301Z,50.7837
2023-05-10T05:27:23.326Z,50.7947
2023-05-10T05:28:25.377Z,50.7727
2023-05-10T05:29:27.442Z,50.6933
2023-05-10T05:30:29.443Z,50.7226
2023-05-10T05:31:31.558Z,50.7364
2023-05-10T05:32:33.724Z,50.7369
2023-05-10T05:33:37.531Z,50.7438
2023-05-10T05:34:37.639Z,50.7180
2023-05-10T05:35:40.478Z,50.7790
2023-05-10T05:36:41.731Z,50.6860
2023-05-10T05:37:43.788Z,50.5845
2023-05-10T05:38:45.802Z,50.5300
2023-05-10T05:39:47.957Z,50.4762
2023-05-10T05:40:50.045Z,50.5030
2023-05-10T05:41:51.960Z,50.5050
2023-05-10T05:42:53.986Z,50.4806
2023-05-10T05:43:56.043Z,50.5400
2023-05-10T05:44:58.059Z,50.8075
2023-05-10T05:46:00.202Z,50.8714
2023-05-10T05:47:02.284Z,51.0643
2023-05-10T05:48:04.359Z,51.3667
2023-05-10T05:49:06.306Z,51.5803
2023-05-10T05:50:08.355Z,51.6307
2023-05-10T05:51:12.063Z,51.6066
2023-05-10T05:52:12.400Z,51.7862
2023-05-10T05:53:31.400Z,52.2316
2023-05-10T05:54:17.803Z,52.0558
2023-05-10T05:55:20.552Z,52.0637
2023-05-10T05:56:20.614Z,52.2716
2023-05-10T05:57:22.630Z,52.5490
2023-05-10T05:58:24.671Z,52.7799
2023-05-10T05:59:26.757Z,52.8941
2023-05-10T06:00:31.513Z,52.6304
2023-05-10T06:01:31.361Z,52.5356
2023-05-10T06:02:32.946Z,52.5164
2023-05-10T06:03:35.032Z,52.8653
2023-05-10T06:04:36.994Z,52.7987
2023-05-10T06:05:39.009Z,53.0259
2023-05-10T06:06:42.009Z,53.1267
2023-05-10T06:07:43.906Z,53.0043
2023-05-10T06:08:45.121Z,53.4243
2023-05-10T06:09:47.201Z,53.4485
2023-05-10T06:10:49.227Z,53.1341
2023-05-10T06:11:51.323Z,53.0985
2023-05-10T06:12:53.419Z,53.2619
2023-05-10T06:13:55.408Z,53.8410
2023-05-10T06:14:57.460Z,53.1446
2023-05-10T06:15:59.490Z,53.0551
2023-05-10T06:17:01.830Z,53.1751
2023-05-10T06:18:06.688Z,53.0715
2023-05-10T06:19:06.764Z,53.2596
2023-05-10T06:20:07.664Z,53.4149
2023-05-10T06:21:09.691Z,53.6247
2023-05-10T06:22:12.729Z,53.9079
2023-05-10T06:23:13.809Z,53.9815
2023-05-10T06:24:14.308Z,54.0681
2023-05-10T06:25:20.527Z,53.6485
2023-05-10T06:26:20.058Z,53.4903
2023-05-10T06:27:21.992Z,53.2343
2023-05-10T06:28:27.057Z,53.1640
2023-05-10T06:29:26.068Z,53.2069
2023-05-10T06:30:28.120Z,53.4251
2023-05-10T06:31:30.220Z,53.8419
2023-05-10T06:32:32.266Z,53.6796
2023-05-10T06:33:34.336Z,53.7496
2023-05-10T06:34:36.315Z,53.5132
2023-05-10T06:35:38.348Z,53.5229
2023-05-10T06:36:40.390Z,54.1314
2023-05-10T06:37:42.447Z,53.3617
2023-05-10T06:38:44.467Z,53.1581
2023-05-10T06:39:46.526Z,52.4888
2023-05-10T06:40:48.580Z,52.2552
2023-05-10T06:41:50.603Z,52.2930
2023-05-10T06:42:52.692Z,52.0660
2023-05-10T06:43:54.865Z,51.5791
2023-05-10T06:44:56.729Z,51.1706
2023-05-10T06:45:58.847Z,50.9700
2023-05-10T06:47:00.846Z,50.8795
2023-05-10T06:48:04.577Z,50.8400
2023-05-10T06:49:04.937Z,50.9674
2023-05-10T06:50:07.028Z,50.9421
2023-05-10T06:51:09.043Z,51.1343
2023-05-10T06:52:11.164Z,51.2238
2023-05-10T06:53:13.104Z,51.1552
2023-05-10T06:54:15.191Z,51.2681
2023-05-10T06:55:17.455Z,51.0391
2023-05-10T06:56:19.261Z,50.7517
2023-05-10T06:57:31.169Z,50.7491
2023-05-10T06:58:23.328Z,50.6675
2023-05-10T06:59:25.452Z,50.7140
2023-05-10T07:00:27.473Z,50.8709
2023-05-10T07:01:29.493Z,51.0096
2023-05-10T07:02:31.545Z,50.7291
2023-05-10T07:03:33.613Z,50.8095
2023-05-10T07:04:35.693Z,50.8474
2023-05-10T07:05:37.860Z,50.9395
2023-05-10T07:06:39.734Z,51.6848
2023-05-10T07:07:41.767Z,51.3887
2023-05-10T07:08:43.820Z,51.0570
2023-05-10T07:09:45.869Z,51.3925
2023-05-10T07:10:47.909Z,51.2243
2023-05-10T07:11:49.942Z,50.8475
2023-05-10T07:12:52.226Z,50.8248
2023-05-10T07:13:56.063Z,50.7383
2023-05-10T07:14:56.096Z,50.6504
2023-05-10T07:15:58.123Z,50.8730
2023-05-10T07:17:00.296Z,51.0306
2023-05-10T07:18:02.288Z,51.1851
2023-05-10T07:19:04.270Z,51.4394
2023-05-10T07:20:06.388Z,51.9307
2023-05-10T07:21:08.354Z,51.7072
2023-05-10T07:22:10.404Z,51.5886
2023-05-10T07:23:12.445Z,51.4518
2023-05-10T07:24:14.511Z,51.0479
2023-05-10T07:25:16.623Z,50.9514
2023-05-10T07:26:18.617Z,50.7543
2023-05-10T07:27:20.605Z,50.5785
2023-05-10T07:28:22.688Z,50.5202
2023-05-10T07:29:24.764Z,50.6414
2023-05-10T07:30:26.780Z,50.5664
2023-05-10T07:31:28.893Z,50.6308
2023-05-10T07:32:30.886Z,50.5242
2023-05-10T07:33:32.964Z,50.5507
2023-05-10T07:34:34.966Z,50.4801
2023-05-10T07:35:37.100Z,50.2691
2023-05-10T07:36:39.034Z,50.4030
2023-05-10T07:37:41.112Z,50.1708
2023-05-10T07:38:43.136Z,50.3758
2023-05-10T07:39:45.216Z,50.2056
2023-05-10T07:40:47.207Z,50.1285
2023-05-10T07:41:49.279Z,50.4013
2023-05-10T07:42:51.322Z,50.3079
2023-05-10T07:43:53.360Z,50.2372
2023-05-10T07:44:55.399Z,50.2794
2023-05-10T07:45:57.470Z,50.4491
2023-05-10T07:46:59.484Z,50.3604
2023-05-10T07:48:01.553Z,50.5979
2023-05-10T07:49:03.591Z,50.5303
2023-05-10T07:50:07.874Z,50.1877
2023-05-10T07:51:07.688Z,50.0342
2023-05-10T07:52:09.747Z,49.8646
2023-05-10T07:53:11.852Z,49.7135
2023-05-10T07:54:13.870Z,49.6552
2023-05-10T07:55:16.096Z,49.8775
2023-05-10T07:56:18.513Z,50.0285
2023-05-10T07:57:20.007Z,50.2239
2023-05-10T07:58:24.047Z,50.1205
2023-05-10T07:59:25.971Z,50.4913
2023-05-10T08:00:26.126Z,50.4370
2023-05-10T08:01:28.142Z,50.7569
2023-05-10T08:02:30.343Z,51.1294
2023-05-10T08:03:32.487Z,50.7606
2023-05-10T08:04:34.322Z,50.0141
2023-05-10T08:05:36.349Z,50.0795
2023-05-10T08:06:38.399Z,50.1319
2023-05-10T08:07:40.412Z,50.0482
2023-05-10T08:08:42.543Z,49.7908
2023-05-10T08:09:44.532Z,49.9037
2023-05-10T08:10:46.603Z,49.8535
2023-05-10T08:11:49.113Z,49.9070
2023-05-10T08:12:50.769Z,50.1433
2023-05-10T08:13:53.495Z,49.8267
2023-05-10T08:14:56.488Z,49.7950
2023-05-10T08:15:57.082Z,49.8060
2023-05-10T08:17:11.632Z,49.9400
2023-05-10T08:18:00.973Z,50.0934
2023-05-10T08:19:04.319Z,49.9824
2023-05-10T08:20:05.339Z,49.8409
2023-05-10T08:21:07.051Z,49.8399
2023-05-10T08:22:09.087Z,49.8841
2023-05-10T08:23:11.120Z,49.9424
2023-05-10T08:24:13.280Z,49.9059
2023-05-10T08:25:18.155Z,49.7406
2023-05-10T08:26:17.276Z,49.6806
2023-05-10T08:27:19.460Z,49.7723
2023-05-10T08:28:21.461Z,49.7788
2023-05-10T08:29:23.366Z,49.5957
2023-05-10T08:30:25.453Z,49.4504
2023-05-10T08:31:27.894Z,49.3739
2023-05-10T08:32:29.556Z,49.4124
2023-05-10T08:33:31.608Z,49.4542
2023-05-10T08:34:34.541Z,49.7796
2023-05-10T08:35:35.768Z,49.4074
2023-05-10T08:36:37.783Z,49.4407
2023-05-10T08:37:40.228Z,49.4618
2023-05-10T08:38:41.872Z,49.2346
2023-05-10T08:39:43.950Z,49.4651
2023-05-10T08:40:46.132Z,49.3007
2023-05-10T08:41:49.004Z,49.2477
2023-05-10T08:42:50.220Z,49.2642
2023-05-10T08:43:55.109Z,48.8405
2023-05-10T08:44:54.182Z,48.3476
2023-05-10T08:45:56.244Z,48.4632
2023-05-10T08:46:58.268Z,48.5495
2023-05-10T08:48:00.440Z,48.8744
2023-05-10T08:49:02.342Z,48.8889
2023-05-10T08:50:04.377Z,48.9929
2023-05-10T08:51:06.552Z,49.1121
2023-05-10T08:52:08.609Z,48.7561
2023-05-10T08:53:10.702Z,48.5719
2023-05-10T08:54:12.553Z,48.7558
2023-05-10T08:55:14.739Z,49.0650
2023-05-10T08:56:16.730Z,49.6654
2023-05-10T08:57:18.755Z,49.7645
2023-05-10T08:58:20.802Z,49.5585
2023-05-10T08:59:22.919Z,49.1753
2023-05-10T09:00:26.097Z,49.0491
2023-05-10T09:01:29.603Z,48.5884
2023-05-10T09:02:29.566Z,48.7018
2023-05-10T09:03:30.947Z,48.9118
2023-05-10T09:04:33.052Z,48.8974
2023-05-10T09:05:37.124Z,48.9604
2023-05-10T09:06:38.033Z,48.7939
2023-05-10T09:07:40.217Z,48.7843
2023-05-10T09:08:41.188Z,48.3904
2023-05-10T09:09:44.626Z,48.4861
2023-05-10T09:10:49.222Z,48.4960
2023-05-10T09:11:47.361Z,48.1681
2023-05-10T09:13:05.114Z,48.1488
2023-05-10T09:13:52.215Z,48.4422
2023-05-10T09:14:53.457Z,48.4910
2023-05-10T09:16:00.328Z,48.4745
2023-05-10T09:16:57.612Z,48.3313
2023-05-10T09:18:01.499Z,48.6063
2023-05-10T09:19:01.665Z,48.4875
2023-05-10T09:20:03.729Z,48.3680
2023-05-10T09:21:05.714Z,47.9637
2023-05-10T09:22:08.579Z,47.9772
2023-05-10T09:23:09.805Z,48.1941
2023-05-10T09:24:11.846Z,47.9072
2023-05-10T09:25:14.801Z,48.0415
2023-05-10T09:26:15.984Z,48.1520
2023-05-10T09:27:17.995Z,47.8936
2023-05-10T09:28:20.114Z,47.9231
2023-05-10T09:29:22.130Z,48.0776
2023-05-10T09:30:24.274Z,47.9932
2023-05-10T09:31:26.359Z,48.0995
2023-05-10T09:32:28.310Z,48.0689
2023-05-10T09:33:30.291Z,48.2635
2023-05-10T09:34:35.666Z,48.4384
2023-05-10T09:35:34.354Z,48.6028
2023-05-10T09:36:36.389Z,48.7909
2023-05-10T09:37:39.016Z,48.3126
2023-05-10T09:38:40.472Z,48.3838
2023-05-10T09:39:42.534Z,48.3507
2023-05-10T09:40:44.656Z,48.0529
2023-05-10T09:41:46.587Z,48.3292
2023-05-10T09:42:48.653Z,48.1087
2023-05-10T09:43:50.661Z,47.8309
2023-05-10T09:44:52.732Z,48.0615
2023-05-10T09:45:54.866Z,48.3090
2023-05-10T09:46:57.377Z,48.4277
2023-05-10T09:47:58.951Z,48.4763
2023-05-10T09:49:00.927Z,48.4511
2023-05-10T09:50:02.928Z,48.9709
2023-05-10T09:51:05.083Z,49.1538
2023-05-10T09:52:07.116Z,48.7165
2023-05-10T09:53:09.057Z,48.9557
2023-05-10T09:54:11.134Z,49.0321
2023-05-10T09:55:13.157Z,48.6237
2023-05-10T09:56:15.222Z,48.3297
2023-05-10T09:57:17.264Z,48.1378
2023-05-10T09:58:19.416Z,48.1469
2023-05-10T09:59:21.299Z,48.4578
2023-05-10T10:00:23.430Z,48.3029
2023-05-10T10:01:25.473Z,47.8148
2023-05-10T10:02:27.521Z,47.8578
2023-05-10T10:03:30.413Z,48.0432
2023-05-10T10:04:31.684Z,48.1114
2023-05-10T10:05:33.614Z,47.8990
2023-05-10T10:06:35.635Z,47.9720
2023-05-10T10:07:37.686Z,47.9430
2023-05-10T10:08:39.737Z,47.7688
2023-05-10T10:09:41.785Z,47.1487
2023-05-10T10:10:43.798Z,47.1163
2023-05-10T10:11:46.106Z,46.7915
2023-05-10T10:12:47.921Z,47.0911
2023-05-10T10:13:49.971Z,47.4966
2023-05-10T10:14:51.982Z,47.5546
2023-05-10T10:15:54.075Z,47.1705
2023-05-10T10:17:06.407Z,46.6693
2023-05-10T10:17:58.143Z,46.9396
2023-05-10T10:19:00.438Z,47.0819
2023-05-10T10:20:02.192Z,47.4104
2023-05-10T10:21:04.417Z,47.6801
2023-05-10T10:22:06.309Z,47.5608
2023-05-10T10:23:08.294Z,47.5740
2023-05-10T10:24:10.394Z,47.6108
2023-05-10T10:25:12.402Z,47.7320
2023-05-10T10:26:14.429Z,47.1955
2023-05-10T10:27:16.541Z,46.9779
2023-05-10T10:28:18.853Z,46.9853
2023-05-10T10:29:20.561Z,46.5288
2023-05-10T10:30:22.622Z,46.6830
2023-05-10T10:31:24.697Z,46.8648
2023-05-10T10:32:26.782Z,46.9087
2023-05-10T10:33:29.252Z,46.4686
2023-05-10T10:34:30.816Z,46.4624
2023-05-10T10:35:32.879Z,46.3783
2023-05-10T10:36:34.931Z,46.2996
2023-05-10T10:37:37.028Z,46.3578
2023-05-10T10:38:39.066Z,45.9782
2023-05-10T10:39:41.031Z,45.9941
2023-05-10T10:40:43.069Z,46.0315
2023-05-10T10:41:45.141Z,45.9681
2023-05-10T10:42:47.187Z,45.8136
2023-05-10T10:43:49.206Z,45.6351
2023-05-10T10:44:51.251Z,46.0851
2023-05-10T10:45:53.302Z,46.1055
2023-05-10T10:46:55.361Z,45.7162
2023-05-10T10:47:57.474Z,45.5829
2023-05-10T10:48:59.484Z,45.8786
2023-05-10T10:50:01.592Z,45.6055
2023-05-10T10:51:03.523Z,45.9935
2023-05-10T10:52:05.580Z,45.7896
2023-05-10T10:53:07.779Z,45.7645
2023-05-10T10:54:09.671Z,45.9228
2023-05-10T10:55:11.753Z,46.1180
2023-05-10T10:56:13.742Z,46.4390
2023-05-10T10:57:15.883Z,46.4425
2023-05-10T10:58:17.842Z,46.4879
2023-05-10T10:59:19.858Z,46.5496
2023-05-10T11:00:21.968Z,46.9139
2023-05-10T11:01:23.998Z,47.3504
2023-05-10T11:02:26.122Z,47.0510
2023-05-10T11:03:28.057Z,46.3861
2023-05-10T11:04:30.155Z,46.3489
2023-05-10T11:05:32.222Z,46.4205
2023-05-10T11:06:34.256Z,46.7098
2023-05-10T11:07:36.208Z,46.2392
2023-05-10T11:08:39.074Z,46.3821
2023-05-10T11:09:40.400Z,46.5043
2023-05-10T11:10:42.328Z,46.0885
2023-05-10T11:11:44.435Z,46.0195
2023-05-10T11:12:46.448Z,45.9901
2023-05-10T11:13:50.955Z,46.2016
2023-05-10T11:14:50.760Z,46.3666
2023-05-10T11:15:52.640Z,46.2641
2023-05-10T11:16:54.688Z,45.8567
2023-05-10T11:17:58.647Z,45.9179
2023-05-10T11:18:58.863Z,46.3685
2023-05-10T11:20:00.802Z,45.8124
2023-05-10T11:21:02.836Z,45.8419
2023-05-10T11:22:04.854Z,45.9877
2023-05-10T11:23:06.908Z,46.4829
2023-05-10T11:24:08.941Z,46.4295
2023-05-10T11:25:11.016Z,46.3093
2023-05-10T11:26:13.557Z,46.1373
2023-05-10T11:27:16.382Z,45.7518
2023-05-10T11:28:17.119Z,45.5418
2023-05-10T11:29:19.172Z,45.5494
2023-05-10T11:30:21.288Z,45.9535
2023-05-10T11:31:23.324Z,45.5272
2023-05-10T11:32:25.382Z,45.2692
2023-05-10T11:33:27.339Z,45.3219
2023-05-10T11:34:29.388Z,45.3015
2023-05-10T11:35:31.447Z,45.4313
2023-05-10T11:36:33.581Z,45.5496
2023-05-10T11:37:35.514Z,45.2859
2023-05-10T11:38:37.685Z,45.1966
2023-05-10T11:39:39.661Z,45.0534
2023-05-10T11:40:41.661Z,45.0283
2023-05-10T11:41:43.731Z,45.0175
2023-05-10T11:42:45.823Z,44.8799
2023-05-10T11:43:47.821Z,44.8067
2023-05-10T11:44:49.851Z,44.6473
2023-05-10T11:45:52.061Z,44.7433
2023-05-10T11:46:53.937Z,45.0219
2023-05-10T11:47:56.045Z,44.7947
2023-05-10T11:48:58.146Z,44.7506
2023-05-10T11:50:00.147Z,44.7407
2023-05-10T11:51:02.267Z,44.4426
2023-05-10T11:52:04.280Z,44.2862
2023-05-10T11:53:06.296Z,44.1921
2023-05-10T11:54:08.284Z,43.8534
2023-05-10T11:55:10.339Z,44.0813
2023-05-10T11:56:12.427Z,45.2113
2023-05-10T11:57:14.408Z,44.9859
2023-05-10T11:58:16.493Z,44.3794
2023-05-10T11:59:18.509Z,44.4138
2023-05-10T12:00:20.594Z,43.9880
2023-05-10T12:01:22.659Z,44.0727
2023-05-10T12:02:24.705Z,44.1543
2023-05-10T12:03:26.809Z,44.0354
2023-05-10T12:04:28.977Z,44.4817
2023-05-10T12:05:30.828Z,44.3347
2023-05-10T12:06:32.987Z,43.8816
2023-05-10T12:07:35.026Z,43.7835
2023-05-10T12:08:36.935Z,43.4026
2023-05-10T12:09:43.828Z,43.1984
2023-05-10T12:10:41.013Z,43.1489
2023-05-10T12:11:44.318Z,43.3774
2023-05-10T12:12:45.494Z,43.5380
2023-05-10T12:13:49.076Z,43.5424
2023-05-10T12:14:49.193Z,43.4081
2023-05-10T12:15:51.269Z,43.6045
2023-05-10T12:16:53.608Z,43.5888
2023-05-10T12:17:55.480Z,43.5125
2023-05-10T12:18:57.448Z,43.6644
2023-05-10T12:19:59.518Z,43.8228
2023-05-10T12:21:01.502Z,43.8599
2023-05-10T12:22:03.565Z,44.0441
2023-05-10T12:23:05.612Z,44.3815
2023-05-10T12:24:10.007Z,44.0923
2023-05-10T12:25:09.681Z,44.0482
2023-05-10T12:26:11.828Z,44.6383
2023-05-10T12:27:13.795Z,45.0548
2023-05-10T12:28:15.810Z,45.7024
2023-05-10T12:29:19.685Z,46.1324
2023-05-10T12:30:20.625Z,46.4332
2023-05-10T12:31:22.049Z,46.6651
2023-05-10T12:32:24.032Z,46.2459
2023-05-10T12:33:26.077Z,46.2865
2023-05-10T12:34:29.610Z,46.0451
2023-05-10T12:35:31.153Z,46.0520
2023-05-10T12:36:32.314Z,46.4709
2023-05-10T12:37:34.271Z,46.6735
2023-05-10T12:38:36.416Z,46.6417
2023-05-10T12:39:38.498Z,47.1529
2023-05-10T12:40:42.223Z,47.0255
2023-05-10T12:41:43.721Z,47.0750
2023-05-10T12:42:45.124Z,47.6715
2023-05-10T12:43:46.670Z,47.9523
2023-05-10T12:44:48.691Z,48.6090
2023-05-10T12:45:50.878Z,48.6100
2023-05-10T12:46:52.749Z,48.2712
2023-05-10T12:47:55.271Z,48.1072
2023-05-10T12:49:08.103Z,48.1623
2023-05-10T12:50:11.143Z,48.4920
2023-05-10T12:51:02.664Z,48.3391
2023-05-10T12:52:03.012Z,48.6587
2023-05-10T12:53:05.036Z,48.6699
2023-05-10T12:54:07.113Z,48.7906
2023-05-10T12:55:09.176Z,48.9820
2023-05-10T12:56:11.272Z,49.1249
2023-05-10T12:57:13.208Z,49.2747
2023-05-10T12:58:27.785Z,49.1472
2023-05-10T12:59:17.375Z,49.0181
2023-05-10T13:00:19.389Z,49.0335
2023-05-10T13:01:21.515Z,49.1819
2023-05-10T13:02:23.498Z,49.2080
2023-05-10T13:03:25.544Z,49.1547
2023-05-10T13:04:27.602Z,49.3755
2023-05-10T13:05:29.587Z,49.4708
2023-05-10T13:06:31.773Z,49.8771
2023-05-10T13:07:33.681Z,49.7251
2023-05-10T13:08:36.293Z,49.5236
2023-05-10T13:09:37.781Z,49.5012
2023-05-10T13:10:39.842Z,49.7709
2023-05-10T13:11:41.848Z,50.0062
2023-05-10T13:12:43.904Z,50.1813
2023-05-10T13:13:45.940Z,49.5572
2023-05-10T13:14:48.009Z,49.3984
2023-05-10T13:15:50.009Z,48.9900
2023-05-10T13:16:52.112Z,49.1124
2023-05-10T13:17:54.157Z,49.1357
2023-05-10T13:18:56.169Z,49.2173
2023-05-10T13:19:58.254Z,49.1286
2023-05-10T13:21:00.240Z,49.1545
2023-05-10T13:22:02.286Z,49.4970
2023-05-10T13:23:04.336Z,49.7669
2023-05-10T13:24:06.437Z,49.8257
2023-05-10T13:25:08.431Z,49.6366
2023-05-10T13:26:11.099Z,49.4045
2023-05-10T13:27:13.098Z,49.2332
2023-05-10T13:28:14.564Z,49.0357
2023-05-10T13:29:16.783Z,48.8880
2023-05-10T13:30:18.858Z,48.7088
2023-05-10T13:31:20.720Z,48.6656
2023-05-10T13:32:22.756Z,48.5785
2023-05-10T13:33:24.822Z,48.8216
2023-05-10T13:34:26.844Z,49.1843
2023-05-10T13:35:30.057Z,49.4608
2023-05-10T13:36:30.971Z,49.2150
2023-05-10T13:37:32.951Z,49.3681
2023-05-10T13:38:35.020Z,49.3099
2023-05-10T13:39:37.053Z,49.5957
2023-05-10T13:40:39.166Z,50.0395
2023-05-10T13:41:41.146Z,50.2321
2023-05-10T13:42:43.221Z,50.4480
2023-05-10T13:43:45.295Z,50.5819
2023-05-10T13:44:47.326Z,50.4650
2023-05-10T13:45:49.360Z,50.4273
2023-05-10T13:46:52.261Z,50.5254
2023-05-10T13:47:53.868Z,50.5747
2023-05-10T13:48:55.492Z,50.5903
2023-05-10T13:49:59.151Z,50.6504
2023-05-10T13:50:59.550Z,50.8614
2023-05-10T13:52:01.624Z,50.7778
2023-05-10T13:53:03.678Z,50.6374
2023-05-10T13:54:05.734Z,50.7614
2023-05-10T13:55:07.913Z,50.7068
2023-05-10T13:56:41.270Z,50.5147
2023-05-10T13:57:16.248Z,50.7169
2023-05-10T13:58:16.117Z,50.6697
2023-05-10T13:59:16.038Z,50.5401
2023-05-10T14:00:18.008Z,50.3864
2023-05-10T14:01:20.194Z,50.5073
2023-05-10T14:02:22.284Z,50.5934
2023-05-10T14:03:24.275Z,50.4330
2023-05-10T14:04:26.226Z,50.2710
2023-05-10T14:05:28.469Z,50.3610
2023-05-10T14:06:30.236Z,50.4000
2023-05-10T14:07:32.281Z,50.4525
2023-05-10T14:08:34.371Z,50.7979
2023-05-10T14:09:36.385Z,50.7816
2023-05-10T14:10:40.255Z,51.0178
2023-05-10T14:11:40.525Z,50.8464
2023-05-10T14:12:42.528Z,51.0844
2023-05-10T14:13:44.578Z,50.7174
2023-05-10T14:14:47.318Z,50.6733
2023-05-10T14:15:48.648Z,50.7528
2023-05-10T14:16:50.910Z,50.6845
2023-05-10T14:17:52.797Z,50.3925
2023-05-10T14:18:54.796Z,50.4261
2023-05-10T14:19:56.853Z,50.5629
2023-05-10T14:20:59.353Z,50.5743
2023-05-10T14:22:00.948Z,50.9000
2023-05-10T14:23:02.965Z,51.1817
2023-05-10T14:24:04.981Z,51.3289
2023-05-10T14:25:07.623Z,51.5708
2023-05-10T14:26:09.318Z,51.5872
2023-05-10T14:27:11.321Z,51.7680
2023-05-10T14:28:13.284Z,51.8869
2023-05-10T14:29:15.200Z,51.5950
2023-05-10T14:30:17.309Z,51.6975
2023-05-10T14:31:19.744Z,51.6524
2023-05-10T14:32:21.424Z,51.6027
2023-05-10T14:33:23.627Z,51.4959
2023-05-10T14:34:25.519Z,51.0188
2023-05-10T14:35:27.473Z,50.9251
2023-05-10T14:36:31.207Z,51.1376
2023-05-10T14:37:31.639Z,51.8557
2023-05-10T14:38:33.660Z,51.4710
2023-05-10T14:39:35.689Z,50.9089
2023-05-10T14:40:37.720Z,50.5636
2023-05-10T14:41:42.662Z,50.5755
2023-05-10T14:42:41.761Z,50.9865
2023-05-10T14:43:43.822Z,51.2062
2023-05-10T14:44:45.881Z,51.4252
2023-05-10T14:45:47.950Z,51.4953
2023-05-10T14:46:50.076Z,51.3968
2023-05-10T14:47:53.764Z,51.4593
2023-05-10T14:48:54.062Z,51.6748
2023-05-10T14:49:56.089Z,51.8076
2023-05-10T14:50:58.172Z,51.9257
2023-05-10T14:52:00.367Z,51.7837
2023-05-10T14:53:03.728Z,52.1167
2023-05-10T14:54:04.285Z,51.8158
2023-05-10T14:55:06.930Z,51.6033
2023-05-10T14:56:08.402Z,51.3628
2023-05-10T14:57:10.396Z,51.4262
2023-05-10T14:58:12.507Z,51.2448
2023-05-10T14:59:14.515Z,51.4540
2023-05-10T15:00:16.772Z,51.5838
2023-05-10T15:01:18.582Z,52.1672
2023-05-10T15:02:20.709Z,52.7685
2023-05-10T15:03:22.820Z,52.2795
2023-05-10T15:04:25.964Z,52.5286
2023-05-10T15:05:26.857Z,52.3507
2023-05-10T15:06:28.777Z,52.6389
2023-05-10T15:07:30.986Z,52.1619
2023-05-10T15:08:32.920Z,51.8288
2023-05-10T15:09:34.913Z,51.7022
2023-05-10T15:10:36.926Z,51.5758
2023-05-10T15:11:39.071Z,51.4074
2023-05-10T15:12:41.045Z,51.4217
2023-05-10T15:13:43.090Z,51.3542
2023-05-10T15:14:45.102Z,51.3814
2023-05-10T15:15:47.204Z,51.2514
2023-05-10T15:16:49.212Z,51.3994
2023-05-10T15:17:51.425Z,51.1635
2023-05-10T15:18:53.364Z,51.5842
2023-05-10T15:19:55.358Z,51.4851
2023-05-10T15:20:57.458Z,51.3009
2023-05-10T15:21:59.524Z,51.3222
2023-05-10T15:23:01.503Z,51.0328
2023-05-10T15:24:03.526Z,50.8425
2023-05-10T15:25:05.624Z,50.7618
2023-05-10T15:26:07.667Z,50.9920
2023-05-10T15:27:09.693Z,51.0532
2023-05-10T15:28:12.661Z,51.3570
2023-05-10T15:29:13.736Z,50.9837
2023-05-10T15:30:15.851Z,50.8941
2023-05-10T15:31:17.857Z,50.8381
2023-05-10T15:32:19.910Z,50.6140
2023-05-10T15:33:22.608Z,50.6286
2023-05-10T15:34:24.029Z,50.6548
2023-05-10T15:35:26.516Z,50.7376
2023-05-10T15:36:28.063Z,50.6892
2023-05-10T15:37:30.117Z,50.9024
2023-05-10T15:38:32.129Z,50.9221
2023-05-10T15:39:34.209Z,50.8829
2023-05-10T15:40:36.241Z,50.7467
2023-05-10T15:41:38.271Z,50.6160
2023-05-10T15:42:40.346Z,50.2367
2023-05-10T15:43:42.571Z,50.2163
2023-05-10T15:44:44.461Z,50.0004
2023-05-10T15:45:46.454Z,49.9361
2023-05-10T15:46:49.438Z,49.8648
2023-05-10T15:47:50.624Z,50.0093
2023-05-10T15:48:52.656Z,49.8927
2023-05-10T15:49:55.071Z,49.8052
2023-05-10T15:50:56.740Z,49.9358
2023-05-10T15:51:58.709Z,50.0621
2023-05-10T15:53:00.934Z,50.2367
2023-05-10T15:54:07.625Z,50.2340
2023-05-10T15:55:04.921Z,50.4162
2023-05-10T15:56:06.917Z,50.1930
2023-05-10T15:57:09.024Z,50.1651
2023-05-10T15:58:13.618Z,50.4180
2023-05-10T15:59:13.035Z,50.1142
2023-05-10T16:00:15.104Z,49.7622
2023-05-10T16:01:17.202Z,49.6992
2023-05-10T16:02:19.241Z,49.2044
2023-05-10T16:03:21.259Z,48.8239
2023-05-10T16:04:23.274Z,48.1122
2023-05-10T16:05:25.346Z,47.4479
2023-05-10T16:06:27.417Z,47.5357
2023-05-10T16:07:29.588Z,47.4965
2023-05-10T16:08:36.697Z,47.5694
2023-05-10T16:09:33.629Z,47.6041
2023-05-10T16:10:35.565Z,47.6438
2023-05-10T16:11:37.785Z,48.1305
2023-05-10T16:12:39.726Z,48.2317
2023-05-10T16:13:41.711Z,48.4956
2023-05-10T16:14:43.740Z,48.3940
2023-05-10T16:15:45.927Z,48.7868
2023-05-10T16:16:47.924Z,49.1692
2023-05-10T16:17:50.108Z,49.2296
2023-05-10T16:18:52.242Z,49.4759
2023-05-10T16:19:54.005Z,49.4412
2023-05-10T16:20:56.023Z,49.4679
2023-05-10T16:21:58.490Z,49.8878
2023-05-10T16:23:00.127Z,49.9633
2023-05-10T16:24:02.177Z,49.8363
2023-05-10T16:25:04.211Z,49.5151
2023-05-10T16:26:06.267Z,49.7518
2023-05-10T16:27:08.278Z,49.4070
2023-05-10T16:28:10.420Z,49.1969
2023-05-10T16:29:12.410Z,49.2175
2023-05-10T16:30:14.408Z,49.0888
2023-05-10T16:31:16.464Z,49.1192
2023-05-10T16:32:18.524Z,49.2547
2023-05-10T16:33:20.630Z,49.2514
2023-05-10T16:34:22.596Z,49.5269
2023-05-10T16:35:24.654Z,49.4298
2023-05-10T16:36:26.892Z,49.4274
2023-05-10T16:37:28.838Z,49.3100
2023-05-10T16:38:30.754Z,49.1146
2023-05-10T16:39:32.833Z,48.7505
2023-05-10T16:40:43.677Z,48.5857
2023-05-10T16:41:36.874Z,48.2094
2023-05-10T16:42:38.977Z,47.8165
2023-05-10T16:43:41.059Z,47.9304
2023-05-10T16:44:43.112Z,47.8447
2023-05-10T16:45:45.762Z,48.2509
2023-05-10T16:46:47.738Z,48.0390
2023-05-10T16:47:49.300Z,48.1348
2023-05-10T16:48:51.308Z,48.0850
2023-05-10T16:49:53.305Z,48.3138
2023-05-10T16:50:55.409Z,47.8385
2023-05-10T16:51:57.416Z,47.4225
2023-05-10T16:52:59.577Z,47.3961
2023-05-10T16:54:01.523Z,47.5530
2023-05-10T16:55:03.602Z,47.3554
2023-05-10T16:56:05.564Z,47.4178
2023-05-10T16:57:07.583Z,47.4091
2023-05-10T16:58:09.643Z,47.5632
2023-05-10T16:59:11.822Z,47.7463
2023-05-10T17:00:14.769Z,47.9041
2023-05-10T17:01:15.820Z,47.9121